sensor_id;sensor_type;location;lat;lon;timestamp;temperature;humidity
30379;DHT22;17168;49.164;9.060;2023-12-28T00:02:10;4.10;99.20
30379;DHT22;17168;49.164;9.060;2023-12-28T00:04:42;4.10;99.30
30379;DHT22;17168;49.164;9.060;2023-12-28T00:07:15;4.00;99.50
30379;DHT22;17168;49.164;9.060;2023-12-28T00:09:47;4.00;99.70
30379;DHT22;17168;49.164;9.060;2023-12-28T00:12:19;3.90;99.80
30379;DHT22;17168;49.164;9.060;2023-12-28T00:14:54;3.90;99.90
30379;DHT22;17168;49.164;9.060;2023-12-28T00:17:27;3.90;99.90
30379;DHT22;17168;49.164;9.060;2023-12-28T00:20:00;3.90;99.90
30379;DHT22;17168;49.164;9.060;2023-12-28T00:22:34;3.90;99.90
30379;DHT22;17168;49.164;9.060;2023-12-28T00:25:09;3.90;99.80
30379;DHT22;17168;49.164;9.060;2023-12-28T00:27:41;3.80;99.80
30379;DHT22;17168;49.164;9.060;2023-12-28T00:30:17;3.80;99.90
30379;DHT22;17168;49.164;9.060;2023-12-28T00:32:49;3.80;99.90
30379;DHT22;17168;49.164;9.060;2023-12-28T00:35:22;3.80;99.90
30379;DHT22;17168;49.164;9.060;2023-12-28T00:37:54;3.80;99.90
30379;DHT22;17168;49.164;9.060;2023-12-28T00:40:27;3.80;99.90
30379;DHT22;17168;49.164;9.060;2023-12-28T00:42:59;3.80;99.90
30379;DHT22;17168;49.164;9.060;2023-12-28T00:45:34;3.70;99.90
30379;DHT22;17168;49.164;9.060;2023-12-28T00:48:07;3.70;99.90
30379;DHT22;17168;49.164;9.060;2023-12-28T00:50:39;3.60;99.90
30379;DHT22;17168;49.164;9.060;2023-12-28T00:53:12;3.60;99.90
30379;DHT22;17168;49.164;9.060;2023-12-28T00:55:44;3.60;99.90
30379;DHT22;17168;49.164;9.060;2023-12-28T00:58:18;3.60;99.90
30379;DHT22;17168;49.164;9.060;2023-12-28T01:00:53;3.50;99.90
30379;DHT22;17168;49.164;9.060;2023-12-28T01:03:29;3.50;99.90
30379;DHT22;17168;49.164;9.060;2023-12-28T01:06:05;3.50;99.90
30379;DHT22;17168;49.164;9.060;2023-12-28T01:08:40;3.50;99.90
30379;DHT22;17168;49.164;9.060;2023-12-28T01:11:15;3.50;99.90
30379;DHT22;17168;49.164;9.060;2023-12-28T01:13:48;3.50;99.90
30379;DHT22;17168;49.164;9.060;2023-12-28T01:16:23;3.50;99.90
30379;DHT22;17168;49.164;9.060;2023-12-28T01:18:55;3.50;99.90
30379;DHT22;17168;49.164;9.060;2023-12-28T01:21:27;3.50;99.90
30379;DHT22;17168;49.164;9.060;2023-12-28T01:24:01;3.50;99.90
30379;DHT22;17168;49.164;9.060;2023-12-28T01:26:33;3.50;99.90
30379;DHT22;17168;49.164;9.060;2023-12-28T01:29:06;3.40;99.90
30379;DHT22;17168;49.164;9.060;2023-12-28T01:31:42;3.40;99.90
30379;DHT22;17168;49.164;9.060;2023-12-28T01:34:14;3.40;99.90
30379;DHT22;17168;49.164;9.060;2023-12-28T01:36:47;3.50;99.90
30379;DHT22;17168;49.164;9.060;2023-12-28T01:39:19;3.40;99.90
30379;DHT22;17168;49.164;9.060;2023-12-28T01:41:51;3.40;99.90
30379;DHT22;17168;49.164;9.060;2023-12-28T01:44:24;3.40;99.90
30379;DHT22;17168;49.164;9.060;2023-12-28T01:46:59;3.40;99.90
30379;DHT22;17168;49.164;9.060;2023-12-28T01:49:32;3.40;99.90
30379;DHT22;17168;49.164;9.060;2023-12-28T01:52:06;3.40;99.90
30379;DHT22;17168;49.164;9.060;2023-12-28T01:54:39;3.40;99.90
30379;DHT22;17168;49.164;9.060;2023-12-28T01:57:13;3.40;99.90
30379;DHT22;17168;49.164;9.060;2023-12-28T01:59:46;3.40;99.90
30379;DHT22;17168;49.164;9.060;2023-12-28T02:02:22;3.30;99.90
30379;DHT22;17168;49.164;9.060;2023-12-28T02:04:58;3.40;99.90
30379;DHT22;17168;49.164;9.060;2023-12-28T02:07:32;3.30;99.90
30379;DHT22;17168;49.164;9.060;2023-12-28T02:10:06;3.30;99.90
30379;DHT22;17168;49.164;9.060;2023-12-28T02:12:38;3.30;99.90
30379;DHT22;17168;49.164;9.060;2023-12-28T02:15:11;3.30;99.90
30379;DHT22;17168;49.164;9.060;2023-12-28T02:17:50;3.30;99.90
30379;DHT22;17168;49.164;9.060;2023-12-28T02:20:26;3.30;99.90
30379;DHT22;17168;49.164;9.060;2023-12-28T02:23:00;3.30;99.90
30379;DHT22;17168;49.164;9.060;2023-12-28T02:25:36;3.30;99.90
30379;DHT22;17168;49.164;9.060;2023-12-28T02:28:09;3.30;99.90
30379;DHT22;17168;49.164;9.060;2023-12-28T02:30:44;3.30;99.90
30379;DHT22;17168;49.164;9.060;2023-12-28T02:33:22;3.30;99.90
30379;DHT22;17168;49.164;9.060;2023-12-28T02:35:58;3.30;99.90
30379;DHT22;17168;49.164;9.060;2023-12-28T02:38:33;3.30;99.90
30379;DHT22;17168;49.164;9.060;2023-12-28T02:41:10;3.40;99.90
30379;DHT22;17168;49.164;9.060;2023-12-28T02:43:43;3.30;99.90
30379;DHT22;17168;49.164;9.060;2023-12-28T02:46:16;3.30;99.90
30379;DHT22;17168;49.164;9.060;2023-12-28T02:48:49;3.30;99.90
30379;DHT22;17168;49.164;9.060;2023-12-28T02:51:22;3.30;99.90
30379;DHT22;17168;49.164;9.060;2023-12-28T02:53:54;3.30;99.90
30379;DHT22;17168;49.164;9.060;2023-12-28T02:56:29;3.30;99.90
30379;DHT22;17168;49.164;9.060;2023-12-28T02:59:01;3.30;99.90
30379;DHT22;17168;49.164;9.060;2023-12-28T03:01:34;3.30;99.90
30379;DHT22;17168;49.164;9.060;2023-12-28T03:04:06;3.30;99.90
30379;DHT22;17168;49.164;9.060;2023-12-28T03:06:42;3.30;99.90
30379;DHT22;17168;49.164;9.060;2023-12-28T03:09:14;3.40;99.90
30379;DHT22;17168;49.164;9.060;2023-12-28T03:11:49;3.40;99.90
30379;DHT22;17168;49.164;9.060;2023-12-28T03:14:22;3.40;99.90
30379;DHT22;17168;49.164;9.060;2023-12-28T03:16:54;3.50;99.90
30379;DHT22;17168;49.164;9.060;2023-12-28T03:19:26;3.60;99.90
30379;DHT22;17168;49.164;9.060;2023-12-28T03:21:59;3.60;99.90
30379;DHT22;17168;49.164;9.060;2023-12-28T03:24:31;3.70;99.90
30379;DHT22;17168;49.164;9.060;2023-12-28T03:27:06;3.80;99.90
30379;DHT22;17168;49.164;9.060;2023-12-28T03:29:41;3.80;99.90
30379;DHT22;17168;49.164;9.060;2023-12-28T03:32:14;3.90;99.90
30379;DHT22;17168;49.164;9.060;2023-12-28T03:34:46;3.90;99.90
30379;DHT22;17168;49.164;9.060;2023-12-28T03:37:19;4.00;99.90
30379;DHT22;17168;49.164;9.060;2023-12-28T03:39:51;4.10;99.90
30379;DHT22;17168;49.164;9.060;2023-12-28T03:42:26;4.10;99.90
30379;DHT22;17168;49.164;9.060;2023-12-28T03:45:02;4.20;99.90
30379;DHT22;17168;49.164;9.060;2023-12-28T03:47:34;4.30;99.90
30379;DHT22;17168;49.164;9.060;2023-12-28T03:50:08;4.40;99.90
30379;DHT22;17168;49.164;9.060;2023-12-28T03:52:40;4.50;99.90
30379;DHT22;17168;49.164;9.060;2023-12-28T03:55:13;4.50;99.90
30379;DHT22;17168;49.164;9.060;2023-12-28T03:57:48;4.60;99.90
30379;DHT22;17168;49.164;9.060;2023-12-28T04:00:20;4.70;99.90
30379;DHT22;17168;49.164;9.060;2023-12-28T04:02:55;4.80;99.90
30379;DHT22;17168;49.164;9.060;2023-12-28T04:05:30;4.80;99.90
30379;DHT22;17168;49.164;9.060;2023-12-28T04:08:03;4.90;99.90
30379;DHT22;17168;49.164;9.060;2023-12-28T04:10:36;5.00;99.90
30379;DHT22;17168;49.164;9.060;2023-12-28T04:13:13;5.10;99.90
30379;DHT22;17168;49.164;9.060;2023-12-28T04:15:46;5.10;99.90
30379;DHT22;17168;49.164;9.060;2023-12-28T04:18:19;5.20;99.90
30379;DHT22;17168;49.164;9.060;2023-12-28T04:20:52;5.50;99.90
30379;DHT22;17168;49.164;9.060;2023-12-28T04:23:24;5.70;99.90
30379;DHT22;17168;49.164;9.060;2023-12-28T04:25:58;5.90;99.90
30379;DHT22;17168;49.164;9.060;2023-12-28T04:28:33;6.00;99.90
30379;DHT22;17168;49.164;9.060;2023-12-28T04:31:08;6.10;99.90
30379;DHT22;17168;49.164;9.060;2023-12-28T04:33:41;6.10;99.90
30379;DHT22;17168;49.164;9.060;2023-12-28T04:36:13;6.20;99.90
30379;DHT22;17168;49.164;9.060;2023-12-28T04:38:45;6.30;99.90
30379;DHT22;17168;49.164;9.060;2023-12-28T04:41:18;6.30;99.90
30379;DHT22;17168;49.164;9.060;2023-12-28T04:43:53;6.40;99.90
30379;DHT22;17168;49.164;9.060;2023-12-28T04:46:25;6.50;99.90
30379;DHT22;17168;49.164;9.060;2023-12-28T04:48:57;6.60;99.90
30379;DHT22;17168;49.164;9.060;2023-12-28T04:51:30;6.80;99.90
30379;DHT22;17168;49.164;9.060;2023-12-28T04:54:02;7.00;99.90
30379;DHT22;17168;49.164;9.060;2023-12-28T04:56:35;7.20;99.90
30379;DHT22;17168;49.164;9.060;2023-12-28T04:59:11;7.50;99.90
30379;DHT22;17168;49.164;9.060;2023-12-28T05:01:45;7.80;99.90
30379;DHT22;17168;49.164;9.060;2023-12-28T05:04:22;8.10;99.90
30379;DHT22;17168;49.164;9.060;2023-12-28T05:06:56;8.30;99.30
30379;DHT22;17168;49.164;9.060;2023-12-28T05:09:28;8.60;98.90
30379;DHT22;17168;49.164;9.060;2023-12-28T05:12:00;8.80;98.50
30379;DHT22;17168;49.164;9.060;2023-12-28T05:14:36;9.00;97.80
30379;DHT22;17168;49.164;9.060;2023-12-28T05:17:11;9.10;97.20
30379;DHT22;17168;49.164;9.060;2023-12-28T05:19:43;9.20;95.10
30379;DHT22;17168;49.164;9.060;2023-12-28T05:22:16;9.40;93.80
30379;DHT22;17168;49.164;9.060;2023-12-28T05:24:48;9.50;93.00
30379;DHT22;17168;49.164;9.060;2023-12-28T05:27:21;9.60;92.60
30379;DHT22;17168;49.164;9.060;2023-12-28T05:29:56;9.70;91.10
30379;DHT22;17168;49.164;9.060;2023-12-28T05:32:28;9.80;90.80
30379;DHT22;17168;49.164;9.060;2023-12-28T05:35:03;9.90;89.70
30379;DHT22;17168;49.164;9.060;2023-12-28T05:37:40;9.90;89.60
30379;DHT22;17168;49.164;9.060;2023-12-28T05:40:20;10.00;88.30
30379;DHT22;17168;49.164;9.060;2023-12-28T05:42:52;10.10;88.60
30379;DHT22;17168;49.164;9.060;2023-12-28T05:45:27;10.10;88.50
30379;DHT22;17168;49.164;9.060;2023-12-28T05:48:02;10.10;88.40
30379;DHT22;17168;49.164;9.060;2023-12-28T05:50:35;10.20;88.70
30379;DHT22;17168;49.164;9.060;2023-12-28T05:53:10;10.20;89.10
30379;DHT22;17168;49.164;9.060;2023-12-28T05:55:48;10.30;88.70
30379;DHT22;17168;49.164;9.060;2023-12-28T05:58:28;10.30;89.10
30379;DHT22;17168;49.164;9.060;2023-12-28T06:01:04;10.30;89.10
30379;DHT22;17168;49.164;9.060;2023-12-28T06:03:37;10.30;89.40
30379;DHT22;17168;49.164;9.060;2023-12-28T06:06:12;10.40;89.30
30379;DHT22;17168;49.164;9.060;2023-12-28T06:08:44;10.40;89.50
30379;DHT22;17168;49.164;9.060;2023-12-28T06:11:17;10.40;89.70
30379;DHT22;17168;49.164;9.060;2023-12-28T06:13:54;10.40;90.00
30379;DHT22;17168;49.164;9.060;2023-12-28T06:16:29;10.40;89.60
30379;DHT22;17168;49.164;9.060;2023-12-28T06:19:10;10.40;89.70
30379;DHT22;17168;49.164;9.060;2023-12-28T06:21:44;10.40;89.90
30379;DHT22;17168;49.164;9.060;2023-12-28T06:24:19;10.40;89.70
30379;DHT22;17168;49.164;9.060;2023-12-28T06:26:55;10.40;90.00
30379;DHT22;17168;49.164;9.060;2023-12-28T06:29:57;10.40;90.30
30379;DHT22;17168;49.164;9.060;2023-12-28T06:32:37;10.40;90.80
30379;DHT22;17168;49.164;9.060;2023-12-28T06:35:26;10.40;91.20
30379;DHT22;17168;49.164;9.060;2023-12-28T06:38:28;10.30;91.70
30379;DHT22;17168;49.164;9.060;2023-12-28T18:39:27;10.50;99.90
30379;DHT22;17168;49.164;9.060;2023-12-28T18:42:01;10.40;99.90
30379;DHT22;17168;49.164;9.060;2023-12-28T18:44:34;10.40;99.90
30379;DHT22;17168;49.164;9.060;2023-12-28T18:47:08;10.50;99.90
30379;DHT22;17168;49.164;9.060;2023-12-28T18:49:41;10.40;99.90
30379;DHT22;17168;49.164;9.060;2023-12-28T18:52:13;10.40;99.90
30379;DHT22;17168;49.164;9.060;2023-12-28T18:54:48;10.40;99.90
30379;DHT22;17168;49.164;9.060;2023-12-28T18:57:20;10.40;99.90
30379;DHT22;17168;49.164;9.060;2023-12-28T18:59:55;10.40;99.90
30379;DHT22;17168;49.164;9.060;2023-12-28T19:02:28;10.40;99.90
30379;DHT22;17168;49.164;9.060;2023-12-28T19:05:00;10.40;99.90
30379;DHT22;17168;49.164;9.060;2023-12-28T19:07:33;10.40;99.90
30379;DHT22;17168;49.164;9.060;2023-12-28T19:10:13;10.30;99.90
30379;DHT22;17168;49.164;9.060;2023-12-28T19:12:45;10.30;99.90
30379;DHT22;17168;49.164;9.060;2023-12-28T19:15:18;10.50;99.90
30379;DHT22;17168;49.164;9.060;2023-12-28T19:17:50;10.90;99.90
30379;DHT22;17168;49.164;9.060;2023-12-28T19:20:24;11.30;99.90
30379;DHT22;17168;49.164;9.060;2023-12-28T19:22:56;11.70;99.90
30379;DHT22;17168;49.164;9.060;2023-12-28T19:25:31;12.00;99.90
30379;DHT22;17168;49.164;9.060;2023-12-28T19:28:04;12.30;99.90
30379;DHT22;17168;49.164;9.060;2023-12-28T19:30:36;12.60;99.90
30379;DHT22;17168;49.164;9.060;2023-12-28T19:33:09;12.80;99.90
30379;DHT22;17168;49.164;9.060;2023-12-28T19:35:41;13.10;99.90
30379;DHT22;17168;49.164;9.060;2023-12-28T19:38:13;13.20;99.90
30379;DHT22;17168;49.164;9.060;2023-12-28T19:40:48;13.40;99.90
30379;DHT22;17168;49.164;9.060;2023-12-28T19:43:23;13.50;99.90
30379;DHT22;17168;49.164;9.060;2023-12-28T19:45:56;13.60;99.90
30379;DHT22;17168;49.164;9.060;2023-12-28T19:48:28;13.70;99.10
30379;DHT22;17168;49.164;9.060;2023-12-28T19:51:00;13.70;98.40
30379;DHT22;17168;49.164;9.060;2023-12-28T19:53:33;13.80;97.50
30379;DHT22;17168;49.164;9.060;2023-12-28T19:56:08;13.80;96.70
30379;DHT22;17168;49.164;9.060;2023-12-28T19:58:40;13.80;95.90
30379;DHT22;17168;49.164;9.060;2023-12-28T20:01:12;13.90;95.50
30379;DHT22;17168;49.164;9.060;2023-12-28T20:03:44;13.90;94.80
30379;DHT22;17168;49.164;9.060;2023-12-28T20:06:18;14.00;94.40
30379;DHT22;17168;49.164;9.060;2023-12-28T20:08:51;14.00;93.80
30379;DHT22;17168;49.164;9.060;2023-12-28T20:11:26;14.10;93.30
30379;DHT22;17168;49.164;9.060;2023-12-28T20:13:58;14.30;92.70
30379;DHT22;17168;49.164;9.060;2023-12-28T20:16:31;14.30;92.00
30379;DHT22;17168;49.164;9.060;2023-12-28T20:19:03;14.40;91.50
30379;DHT22;17168;49.164;9.060;2023-12-28T20:21:36;14.60;91.00
30379;DHT22;17168;49.164;9.060;2023-12-28T20:24:10;14.60;90.40
30379;DHT22;17168;49.164;9.060;2023-12-28T20:26:44;14.70;90.20
30379;DHT22;17168;49.164;9.060;2023-12-28T20:29:17;14.80;90.00
30379;DHT22;17168;49.164;9.060;2023-12-28T20:31:49;14.80;88.00
30379;DHT22;17168;49.164;9.060;2023-12-28T20:34:21;14.80;86.90
30379;DHT22;17168;49.164;9.060;2023-12-28T20:36:54;14.90;86.90
30379;DHT22;17168;49.164;9.060;2023-12-28T20:39:26;15.00;86.60
30379;DHT22;17168;49.164;9.060;2023-12-28T20:42:01;15.00;85.60
30379;DHT22;17168;49.164;9.060;2023-12-28T20:44:33;15.10;85.00
30379;DHT22;17168;49.164;9.060;2023-12-28T20:47:05;15.10;84.70
30379;DHT22;17168;49.164;9.060;2023-12-28T20:49:38;15.20;84.40
30379;DHT22;17168;49.164;9.060;2023-12-28T20:52:18;15.20;84.00
30379;DHT22;17168;49.164;9.060;2023-12-28T20:54:50;15.30;83.50
30379;DHT22;17168;49.164;9.060;2023-12-28T20:57:27;15.30;83.40
30379;DHT22;17168;49.164;9.060;2023-12-28T21:00:02;15.40;83.40
30379;DHT22;17168;49.164;9.060;2023-12-28T21:02:35;15.40;83.10
30379;DHT22;17168;49.164;9.060;2023-12-28T21:05:07;15.40;83.00
30379;DHT22;17168;49.164;9.060;2023-12-28T21:07:40;15.50;82.70
30379;DHT22;17168;49.164;9.060;2023-12-28T21:10:13;15.60;82.20
30379;DHT22;17168;49.164;9.060;2023-12-28T21:12:48;15.50;81.80
30379;DHT22;17168;49.164;9.060;2023-12-28T21:15:23;15.60;81.40
30379;DHT22;17168;49.164;9.060;2023-12-28T21:17:56;15.50;81.10
30379;DHT22;17168;49.164;9.060;2023-12-28T21:20:34;15.50;80.60
30379;DHT22;17168;49.164;9.060;2023-12-28T21:23:07;15.50;80.20
30379;DHT22;17168;49.164;9.060;2023-12-28T21:25:39;15.50;79.80
30379;DHT22;17168;49.164;9.060;2023-12-28T21:28:14;15.50;79.50
30379;DHT22;17168;49.164;9.060;2023-12-28T21:30:46;15.50;79.40
30379;DHT22;17168;49.164;9.060;2023-12-28T21:33:19;15.50;79.10
30379;DHT22;17168;49.164;9.060;2023-12-28T21:35:51;15.60;78.80
30379;DHT22;17168;49.164;9.060;2023-12-28T21:38:23;15.60;78.20
30379;DHT22;17168;49.164;9.060;2023-12-28T21:40:56;15.60;78.00
30379;DHT22;17168;49.164;9.060;2023-12-28T21:43:30;15.70;78.00
30379;DHT22;17168;49.164;9.060;2023-12-28T21:46:03;15.70;77.60
30379;DHT22;17168;49.164;9.060;2023-12-28T21:48:35;15.70;77.00
30379;DHT22;17168;49.164;9.060;2023-12-28T21:51:08;15.70;76.70
30379;DHT22;17168;49.164;9.060;2023-12-28T21:53:41;15.60;76.50
30379;DHT22;17168;49.164;9.060;2023-12-28T21:56:13;15.60;76.50
30379;DHT22;17168;49.164;9.060;2023-12-28T21:58:49;15.50;75.90
30379;DHT22;17168;49.164;9.060;2023-12-28T22:01:23;15.50;75.90
30379;DHT22;17168;49.164;9.060;2023-12-28T22:03:56;15.40;75.70
30379;DHT22;17168;49.164;9.060;2023-12-28T22:06:29;15.30;75.60
30379;DHT22;17168;49.164;9.060;2023-12-28T22:09:01;15.30;75.50
30379;DHT22;17168;49.164;9.060;2023-12-28T22:11:33;15.20;75.80
30379;DHT22;17168;49.164;9.060;2023-12-28T22:14:08;15.20;75.70
30379;DHT22;17168;49.164;9.060;2023-12-28T22:16:40;14.80;75.80
30379;DHT22;17168;49.164;9.060;2023-12-28T22:19:12;14.50;76.30
30379;DHT22;17168;49.164;9.060;2023-12-28T22:21:45;14.10;77.20
30379;DHT22;17168;49.164;9.060;2023-12-28T22:24:17;13.70;78.10
30379;DHT22;17168;49.164;9.060;2023-12-28T22:26:50;13.40;79.10
30379;DHT22;17168;49.164;9.060;2023-12-28T22:29:25;13.10;80.00
30379;DHT22;17168;49.164;9.060;2023-12-28T22:31:57;12.80;81.00
30379;DHT22;17168;49.164;9.060;2023-12-28T22:34:30;12.60;81.70
30379;DHT22;17168;49.164;9.060;2023-12-28T22:37:03;12.40;82.40
30379;DHT22;17168;49.164;9.060;2023-12-28T22:39:36;12.20;83.20
30379;DHT22;17168;49.164;9.060;2023-12-28T22:42:09;12.10;84.10
30379;DHT22;17168;49.164;9.060;2023-12-28T22:44:45;12.10;86.20
30379;DHT22;17168;49.164;9.060;2023-12-28T22:47:18;12.30;87.30
30379;DHT22;17168;49.164;9.060;2023-12-28T22:49:51;12.60;87.60
30379;DHT22;17168;49.164;9.060;2023-12-28T22:52:23;12.80;87.10
30379;DHT22;17168;49.164;9.060;2023-12-28T22:54:56;13.00;86.40
30379;DHT22;17168;49.164;9.060;2023-12-28T22:57:28;13.20;85.50
30379;DHT22;17168;49.164;9.060;2023-12-28T23:00:04;13.40;84.90
30379;DHT22;17168;49.164;9.060;2023-12-28T23:02:38;13.60;84.20
30379;DHT22;17168;49.164;9.060;2023-12-28T23:05:10;13.70;83.60
30379;DHT22;17168;49.164;9.060;2023-12-28T23:07:45;13.90;83.20
30379;DHT22;17168;49.164;9.060;2023-12-28T23:10:18;14.00;82.70
30379;DHT22;17168;49.164;9.060;2023-12-28T23:12:50;14.10;82.20
30379;DHT22;17168;49.164;9.060;2023-12-28T23:15:25;14.30;81.90
30379;DHT22;17168;49.164;9.060;2023-12-28T23:17:59;14.40;81.50
30379;DHT22;17168;49.164;9.060;2023-12-28T23:20:32;14.50;81.10
30379;DHT22;17168;49.164;9.060;2023-12-28T23:23:04;14.60;80.70
30379;DHT22;17168;49.164;9.060;2023-12-28T23:25:36;14.70;80.40
30379;DHT22;17168;49.164;9.060;2023-12-28T23:28:08;14.70;80.00
30379;DHT22;17168;49.164;9.060;2023-12-28T23:30:44;14.80;79.60
30379;DHT22;17168;49.164;9.060;2023-12-28T23:33:16;14.80;78.90
30379;DHT22;17168;49.164;9.060;2023-12-28T23:35:50;14.80;78.50
30379;DHT22;17168;49.164;9.060;2023-12-28T23:38:22;14.80;78.30
30379;DHT22;17168;49.164;9.060;2023-12-28T23:40:54;14.90;77.90
30379;DHT22;17168;49.164;9.060;2023-12-28T23:43:26;14.90;77.50
30379;DHT22;17168;49.164;9.060;2023-12-28T23:46:01;14.90;77.10
30379;DHT22;17168;49.164;9.060;2023-12-28T23:48:33;15.00;77.10
30379;DHT22;17168;49.164;9.060;2023-12-28T23:51:06;15.10;77.00
30379;DHT22;17168;49.164;9.060;2023-12-28T23:53:41;15.10;76.50
30379;DHT22;17168;49.164;9.060;2023-12-28T23:56:17;15.20;76.50
30379;DHT22;17168;49.164;9.060;2023-12-28T23:58:50;15.30;76.50
